YPTN/KTR METAR and TAF weather

Enter ICAO airport designator
Station Type Date Time Source
YPTN METAR 2020/04/07 17:00 UTC NOAA

YPTN 071700Z AUTO 13004KT 9999 // NCD 24/17 Q1010


Station Type Date Time Source
YPTN Decoded METAR 2020/04/07 17:00 UTC NOAA

Tindal / Katherine, Australia (YPTN) 14-26S 132-16E 109M
Apr 07, 2020 - 01:00 PM EDT / 2020.04.07 1700 UTC
Wind: from the SE (130 degrees) at 5 MPH (4 KT):0
Visibility: greater than 7 mile(s):0
Temperature: 75 F (24 C)
Dew Point: 62 F (17 C)
Relative Humidity: 64%
Pressure (altimeter): 29.83 in. Hg (1010 hPa)
ob: YPTN 071700Z AUTO 13004KT 9999 // NCD 24/17 Q1010
cycle: 17

Station Type Date Time Source
YPTN TAF 2020/04/07 06:03 UTC NOAA

TAF YPTN 070438Z 0706/0806 12008KT CAVOK
FM072100 09003KT 9999 FEW020
FM080000 10008KT 9999 SCT035

Example: see airport list